This is the latest recevied weather packets stored in our database for station/object KQ4DLB-13. If no packets are shown the sender has not sent any weather packets the latest 10 day(s).
| Time | Temp. | Humidity | Pressure | Rain* | Wind** | Luminosity | Snow |
|---|---|---|---|---|---|---|---|
| 1777734302 | 15.56° C | 51% | 993.2 hPa | 0 mm | - | 684 W/m² | - |
| 1777734006 | 15.56° C | 50% | 993.2 hPa | 0 mm | - | 670 W/m² | - |
| 1777733702 | 15° C | 52% | 993.3 hPa | 0 mm | - | 652 W/m² | - |
| 1777733417 | 15° C | 51% | 993.4 hPa | 0 mm | - | 638 W/m² | - |
| 1777733102 | 15° C | 52% | 993.3 hPa | 0 mm | - | 621 W/m² | - |
| 1777732802 | 14.44° C | 53% | 993.3 hPa | 0 mm | - | 607 W/m² | - |
| 1777732502 | 14.44° C | 55% | 993 hPa | 0 mm | - | 533 W/m² | - |
| 1777732202 | 14.44° C | 56% | 992.7 hPa | 0 mm | - | 121 W/m² | - |
| 1777731902 | 14.44° C | 56% | 992.7 hPa | 0 mm | - | 201 W/m² | - |
| 1777731602 | 14.44° C | 57% | 992.8 hPa | 0 mm | - | 535 W/m² | - |
| 1777731302 | 14.44° C | 59% | 992.7 hPa | 0 mm | - | 526 W/m² | - |
| 1777731002 | 14.44° C | 58% | 992.7 hPa | 0 mm | - | 506 W/m² | - |
| 1777730702 | 13.89° C | 61% | 992.7 hPa | 0 mm | - | 490 W/m² | - |
| 1777730401 | 13.33° C | 63% | 992.7 hPa | 0 mm | - | 474 W/m² | - |
| 1777730103 | 13.33° C | 64% | 993 hPa | 0 mm | - | 455 W/m² | - |
| 1777729802 | 12.78° C | 67% | 993.1 hPa | 0 mm | - | 436 W/m² | - |
| 1777729502 | 12.22° C | 68% | 993.2 hPa | 0 mm | - | 413 W/m² | - |
| 1777729202 | 11.67° C | 71% | 993.2 hPa | 0 mm | - | 397 W/m² | - |
| 1777728903 | 11.11° C | 75% | 993.2 hPa | 0 mm | - | 376 W/m² | - |
| 1777728602 | 10° C | 75% | 993.1 hPa | 0 mm | - | 351 W/m² | - |
| 1777728302 | 9.44° C | 77% | 992.9 hPa | 0 mm | - | 262 W/m² | - |
| 1777728002 | 8.89° C | 84% | 992.8 hPa | 0 mm | - | - | - |
| 1777727702 | 7.78° C | 91% | 992.8 hPa | 0 mm | - | - | - |
| 1777727402 | 7.78° C | 94% | 992.7 hPa | 0 mm | - | - | - |
| 1777727102 | 7.22° C | 95% | 992.5 hPa | 0 mm | - | - | - |
* Rain latest hour (hover to see other rain measurements)
** Current wind speed in m/s (hover to see current wind gust speed)